createdAt,value
2022-09-02T00:01:52.481Z,8.13
2022-09-02T00:05:54.528Z,9.10
2022-09-02T00:09:57.046Z,9.93
2022-09-02T00:14:02.920Z,9.73
2022-09-02T00:18:07.013Z,8.55
2022-09-02T00:22:16.366Z,8.02
2022-09-02T00:26:19.554Z,7.65
2022-09-02T00:30:21.639Z,7.65
2022-09-02T00:34:24.555Z,6.63
2022-09-02T00:38:26.737Z,9.13
2022-09-02T00:42:29.198Z,9.65
2022-09-02T00:46:33.400Z,14.63
2022-09-02T00:50:37.325Z,7.68
2022-09-02T00:54:45.704Z,7.35
2022-09-02T00:58:51.240Z,9.68
2022-09-02T01:02:57.398Z,7.78
2022-09-02T01:06:59.970Z,5.47
2022-09-02T01:11:06.441Z,10.18
2022-09-02T01:15:12.044Z,7.10
2022-09-02T01:19:25.461Z,5.60
2022-09-02T01:23:32.381Z,9.35
2022-09-02T01:27:37.435Z,4.38
2022-09-02T01:31:39.908Z,4.20
2022-09-02T01:35:42.983Z,7.80
2022-09-02T01:39:49.946Z,5.32
2022-09-02T01:43:51.995Z,4.75
2022-09-02T01:47:54.485Z,6.15
2022-09-02T01:51:56.807Z,4.70
2022-09-02T01:56:00.071Z,6.03
2022-09-02T02:00:07.717Z,5.07
2022-09-02T02:04:16.296Z,6.72
2022-09-02T02:08:20.083Z,8.43
2022-09-02T02:12:22.804Z,7.88
2022-09-02T02:16:25.603Z,4.68
2022-09-02T02:20:28.024Z,6.90
2022-09-02T02:24:30.186Z,5.70
2022-09-02T02:28:32.489Z,7.00
2022-09-02T02:32:39.579Z,8.38
2022-09-02T02:36:43.119Z,5.75
2022-09-02T02:40:45.600Z,6.85
2022-09-02T02:44:48.034Z,5.85
2022-09-02T02:48:50.196Z,6.75
2022-09-02T02:52:55.046Z,15.18
2022-09-02T02:56:59.041Z,7.57
2022-09-02T03:01:02.064Z,5.85
2022-09-02T03:05:07.903Z,7.43
2022-09-02T03:09:10.718Z,5.32
2022-09-02T03:13:15.459Z,8.98
2022-09-02T03:17:20.147Z,5.90
2022-09-02T03:21:23.226Z,5.32
2022-09-02T03:25:32.242Z,5.55
2022-09-02T03:29:41.078Z,8.75
2022-09-02T03:33:44.107Z,5.30
2022-09-02T03:37:47.874Z,4.25
2022-09-02T03:41:50.491Z,7.85
2022-09-02T03:45:53.237Z,4.30
2022-09-02T03:49:57.402Z,6.13
2022-09-02T03:54:00.318Z,6.68
2022-09-02T03:58:07.857Z,4.90
2022-09-02T04:02:12.790Z,5.88
2022-09-02T04:06:20.145Z,6.13
2022-09-02T04:10:22.870Z,5.53
2022-09-02T04:14:25.752Z,7.57
2022-09-02T04:18:28.337Z,7.18
2022-09-02T04:22:35.419Z,7.82
2022-09-02T04:26:44.979Z,7.80
2022-09-02T04:30:49.822Z,9.52
2022-09-02T04:34:52.164Z,10.32
2022-09-02T04:38:56.233Z,11.50
2022-09-02T04:43:01.116Z,7.70
2022-09-02T04:47:03.967Z,10.35
2022-09-02T04:51:10.003Z,7.15
2022-09-02T04:55:13.751Z,6.30
2022-09-02T04:59:16.254Z,6.72
2022-09-02T05:03:28.590Z,8.50
2022-09-02T05:07:31.730Z,6.13
2022-09-02T05:11:35.345Z,5.60
2022-09-02T05:15:41.039Z,8.68
2022-09-02T05:19:46.008Z,7.93
2022-09-02T05:23:54.646Z,7.00
2022-09-02T05:27:58.599Z,6.63
2022-09-02T05:32:00.987Z,4.18
2022-09-02T05:36:05.150Z,4.22
2022-09-02T05:40:08.258Z,7.50
2022-09-02T05:44:13.411Z,4.00
2022-09-02T05:48:34.170Z,4.65
2022-09-02T05:52:36.624Z,2.67
2022-09-02T05:56:45.077Z,4.65
2022-09-02T06:00:49.800Z,5.13
2022-09-02T06:04:54.842Z,3.70
2022-09-02T06:09:01.017Z,4.50
2022-09-02T06:13:03.572Z,2.20
2022-09-02T06:17:09.433Z,5.80
2022-09-02T06:21:21.099Z,8.88
2022-09-02T06:25:26.831Z,5.45
2022-09-02T06:29:31.447Z,4.43
2022-09-02T06:33:35.463Z,4.43
2022-09-02T06:37:37.646Z,3.20
2022-09-02T06:41:41.998Z,7.32
2022-09-02T06:45:47.167Z,5.93
2022-09-02T06:49:49.877Z,2.80
2022-09-02T06:53:54.405Z,3.22
2022-09-02T06:57:58.955Z,1.30
2022-09-02T07:02:01.245Z,2.00
2022-09-02T07:06:09.791Z,3.55
2022-09-02T07:10:16.098Z,2.30
2022-09-02T07:14:25.183Z,2.28
2022-09-02T07:18:29.574Z,4.03
2022-09-02T07:22:32.306Z,3.25
2022-09-02T07:26:37.678Z,2.50
2022-09-02T07:30:43.411Z,3.13
2022-09-02T07:34:49.521Z,3.75
2022-09-02T07:38:53.848Z,2.15
2022-09-02T07:47:06.778Z,3.40
2022-09-02T07:51:12.958Z,1.70
2022-09-02T07:55:16.157Z,2.63
2022-09-02T07:59:21.882Z,2.03
2022-09-02T08:03:27.699Z,2.70
2022-09-02T08:07:32.126Z,1.13
2022-09-02T08:11:37.407Z,1.67
2022-09-02T08:15:40.186Z,1.48
2022-09-02T08:19:42.445Z,6.70
2022-09-02T08:23:48.140Z,3.13
2022-09-02T08:27:50.497Z,2.45
2022-09-02T08:31:54.133Z,1.00
2022-09-02T08:35:56.867Z,1.13
2022-09-02T08:39:59.218Z,3.30
2022-09-02T08:44:02.562Z,4.68
2022-09-02T08:48:45.379Z,3.97
2022-09-02T08:53:04.930Z,5.55
2022-09-02T08:57:08.000Z,2.22
2022-09-02T09:01:29.231Z,1.15
2022-09-02T09:06:00.892Z,1.50
2022-09-02T09:10:37.303Z,1.20
2022-09-02T09:14:51.354Z,8.27
2022-09-02T09:19:11.789Z,1.48
2022-09-02T09:23:20.062Z,0.40
2022-09-02T09:27:24.651Z,1.63
2022-09-02T09:31:32.626Z,1.13
2022-09-02T09:35:50.801Z,1.40
2022-09-02T09:39:53.797Z,4.15
2022-09-02T09:43:57.032Z,1.85
2022-09-02T09:48:17.209Z,1.20
2022-09-02T09:52:28.550Z,2.20
2022-09-02T09:56:37.311Z,1.15
2022-09-02T10:00:41.569Z,2.40
2022-09-02T10:04:44.189Z,4.00
2022-09-02T10:09:25.115Z,6.15
2022-09-02T10:13:32.520Z,5.28
2022-09-02T10:18:14.857Z,2.45
2022-09-02T10:22:48.565Z,2.83
2022-09-02T10:27:02.609Z,3.85
2022-09-02T10:31:38.966Z,1.33
2022-09-02T10:35:48.911Z,1.10
2022-09-02T10:40:17.418Z,0.63
2022-09-02T10:44:28.198Z,0.70
2022-09-02T10:49:04.761Z,0.75
2022-09-02T10:53:23.376Z,1.23
2022-09-02T10:57:31.579Z,1.13
2022-09-02T11:02:12.706Z,1.13
2022-09-02T11:06:35.303Z,3.75
2022-09-02T11:11:01.798Z,2.08
2022-09-02T11:15:10.739Z,1.05
2022-09-02T11:19:35.751Z,1.92
2022-09-02T11:24:04.366Z,1.15
2022-09-02T11:28:29.437Z,1.92
2022-09-02T11:32:39.442Z,4.75
2022-09-02T11:36:43.343Z,4.38
2022-09-02T11:41:32.889Z,1.60
2022-09-02T11:45:44.204Z,0.43
2022-09-02T11:50:16.858Z,0.60
2022-09-02T11:54:21.164Z,0.70
2022-09-02T11:58:34.947Z,0.55
2022-09-02T12:02:45.925Z,1.40
2022-09-02T12:07:08.651Z,0.32
2022-09-02T12:11:41.818Z,0.40
2022-09-02T12:15:45.619Z,1.00
2022-09-02T12:19:50.105Z,1.92
2022-09-02T12:23:55.211Z,0.98
2022-09-02T12:28:27.458Z,0.70
2022-09-02T12:32:45.391Z,0.60
2022-09-02T12:36:56.229Z,3.50
2022-09-02T12:41:07.889Z,1.08
2022-09-02T12:45:26.833Z,0.73
2022-09-02T12:49:33.802Z,1.38
2022-09-02T12:53:42.307Z,1.35
2022-09-02T12:57:47.536Z,0.98
2022-09-02T13:02:04.870Z,1.00
2022-09-02T13:06:26.739Z,1.67
2022-09-02T13:10:40.763Z,4.25
2022-09-02T13:15:07.440Z,2.15
2022-09-02T13:19:47.176Z,1.25
2022-09-02T13:24:02.433Z,0.93
2022-09-02T13:28:17.344Z,1.65
2022-09-02T13:32:19.402Z,0.73
2022-09-02T13:36:28.367Z,1.25
2022-09-02T13:44:36.227Z,1.38
2022-09-02T13:48:40.577Z,0.88
2022-09-02T13:53:34.599Z,1.67
2022-09-02T13:57:12.131Z,0.75
2022-09-02T14:01:35.827Z,1.35
2022-09-02T14:05:45.344Z,0.80
2022-09-02T14:09:50.954Z,0.73
2022-09-02T14:13:54.901Z,0.63
2022-09-02T14:18:18.375Z,0.73
2022-09-02T14:22:28.925Z,0.88
2022-09-02T14:26:38.507Z,0.82
2022-09-02T14:30:41.628Z,0.68
2022-09-02T14:34:45.914Z,4.93
2022-09-02T14:38:47.921Z,0.98
2022-09-02T14:42:57.551Z,3.30
2022-09-02T14:47:15.402Z,1.45
2022-09-02T14:51:19.319Z,4.55
2022-09-02T14:55:41.286Z,0.30
2022-09-02T14:59:43.615Z,9.98
2022-09-02T15:03:47.439Z,8.00
2022-09-02T15:07:49.705Z,2.85
2022-09-02T15:11:53.927Z,1.42
2022-09-02T15:15:57.344Z,3.42
2022-09-02T15:19:59.442Z,1.20
2022-09-02T15:24:03.058Z,1.67
2022-09-02T15:28:05.275Z,1.08
2022-09-02T15:32:07.706Z,0.73
2022-09-02T15:36:13.148Z,1.45
2022-09-02T15:40:16.047Z,1.52
2022-09-02T15:44:18.485Z,1.35
2022-09-02T15:48:20.847Z,1.73
2022-09-02T15:52:23.793Z,0.63
2022-09-02T15:56:28.065Z,0.38
2022-09-02T16:00:32.158Z,0.55
2022-09-02T16:04:38.623Z,3.55
2022-09-02T16:08:40.883Z,1.75
2022-09-02T16:12:43.082Z,8.90
2022-09-02T16:16:45.692Z,6.47
2022-09-02T16:20:48.240Z,6.85
2022-09-02T16:24:51.119Z,0.88
2022-09-02T16:29:00.588Z,1.75
2022-09-02T16:33:02.687Z,6.40
2022-09-02T16:37:06.467Z,4.25
2022-09-02T16:41:43.909Z,2.72
2022-09-02T16:45:46.582Z,7.25
2022-09-02T16:49:48.672Z,6.40
2022-09-02T16:53:56.279Z,4.68
2022-09-02T16:58:03.185Z,5.97
2022-09-02T17:02:05.821Z,6.25
2022-09-02T17:06:09.007Z,5.35
2022-09-02T17:10:11.666Z,6.63
2022-09-02T17:14:16.907Z,11.55
2022-09-02T17:18:19.212Z,7.13
2022-09-02T17:22:21.281Z,7.28
2022-09-02T17:26:26.648Z,9.18
2022-09-02T17:30:28.987Z,13.65
2022-09-02T17:34:33.456Z,7.70
2022-09-02T17:38:35.552Z,14.07
2022-09-02T17:42:38.610Z,7.38
2022-09-02T17:46:42.108Z,8.48
2022-09-02T17:50:44.380Z,5.72
2022-09-02T17:54:49.284Z,4.25
2022-09-02T17:59:19.506Z,7.47
2022-09-02T18:03:39.523Z,4.50
2022-09-02T18:07:49.856Z,6.22
2022-09-02T18:11:53.114Z,9.75
2022-09-02T18:15:59.005Z,8.40
2022-09-02T18:20:16.602Z,5.97
2022-09-02T18:24:35.480Z,9.80
2022-09-02T18:28:58.828Z,18.88
2022-09-02T18:33:17.098Z,12.90
2022-09-02T18:37:40.209Z,9.52
2022-09-02T18:42:01.207Z,7.97
2022-09-02T18:46:05.451Z,14.25
2022-09-02T18:50:11.290Z,9.43
2022-09-02T18:54:30.866Z,8.00
2022-09-02T18:59:14.929Z,12.48
2022-09-02T19:03:17.466Z,6.47
2022-09-02T19:07:39.722Z,8.50
2022-09-02T19:11:42.240Z,7.93
2022-09-02T19:15:44.701Z,6.00
2022-09-02T19:19:46.743Z,9.00
2022-09-02T19:23:49.487Z,4.30
2022-09-02T19:27:55.151Z,5.35
2022-09-02T19:31:57.501Z,8.60
2022-09-02T19:35:59.797Z,12.40
2022-09-02T19:40:08.067Z,14.27
2022-09-02T19:44:12.684Z,6.28
2022-09-02T19:48:15.630Z,6.82
2022-09-02T19:52:21.049Z,9.70
2022-09-02T19:56:23.396Z,12.07
2022-09-02T20:00:25.643Z,13.68
2022-09-02T20:04:29.965Z,9.02
2022-09-02T20:08:32.654Z,11.52
2022-09-02T20:12:36.557Z,7.45
2022-09-02T20:16:38.805Z,10.77
2022-09-02T20:20:49.659Z,4.57
2022-09-02T20:24:51.595Z,6.28
2022-09-02T20:28:59.597Z,17.05
2022-09-02T20:33:16.747Z,10.00
2022-09-02T20:37:21.732Z,8.95
2022-09-02T20:41:34.049Z,12.50
2022-09-02T20:45:52.744Z,7.80
2022-09-02T20:50:18.463Z,10.57
2022-09-02T20:54:31.358Z,16.20
2022-09-02T20:58:50.915Z,11.50
2022-09-02T21:03:05.533Z,9.90
2022-09-02T21:07:26.688Z,11.63
2022-09-02T21:11:38.142Z,11.15
2022-09-02T21:15:55.771Z,15.70
2022-09-02T21:20:09.872Z,14.93
2022-09-02T21:24:37.632Z,20.50
2022-09-02T21:28:50.122Z,15.90
2022-09-02T21:32:57.658Z,12.88
2022-09-02T21:37:00.535Z,13.98
2022-09-02T21:41:20.610Z,12.18
2022-09-02T21:45:44.423Z,11.65
2022-09-02T21:50:24.024Z,16.95
2022-09-02T21:54:44.566Z,12.05
2022-09-02T21:58:49.522Z,16.38
2022-09-02T22:03:16.394Z,14.07
2022-09-02T22:07:26.428Z,11.70
2022-09-02T22:11:32.076Z,12.45
2022-09-02T22:16:01.516Z,16.70
2022-09-02T22:20:07.586Z,18.15
2022-09-02T22:24:10.167Z,18.02
2022-09-02T22:28:21.143Z,17.27
2022-09-02T22:37:34.338Z,21.88
2022-09-02T22:41:45.604Z,21.05
2022-09-02T22:46:24.851Z,19.17
2022-09-02T22:50:52.367Z,24.53
2022-09-02T22:54:56.862Z,15.60
2022-09-02T22:59:18.242Z,17.13
2022-09-02T23:03:55.210Z,28.90
2022-09-02T23:07:57.480Z,24.40
2022-09-02T23:12:13.267Z,19.20
2022-09-02T23:16:40.243Z,22.58
2022-09-02T23:20:51.443Z,38.47
2022-09-02T23:25:24.575Z,44.85
2022-09-02T23:29:29.772Z,43.42
2022-09-02T23:33:53.173Z,36.65
2022-09-02T23:38:16.619Z,42.30
2022-09-02T23:42:19.272Z,46.20
2022-09-02T23:46:52.034Z,36.33
2022-09-02T23:51:07.128Z,33.25
2022-09-02T23:55:09.524Z,26.77
2022-09-02T23:59:35.087Z,25.27
